Time;durP1;ratioP1;P1;durP2;ratioP2;P2;SDS_P1;SDS_P2;PMS_P1;PMS_P2;Temp;Humidity;BMP_temperature;BMP_pressure;BME280_temperature;BME280_humidity;BME280_pressure;Samples;Min_cycle;Max_cycle;Signal;HPM_P1;HPM_P2
2022/03/23 00:01:18;;;;;;;54.88;29.45;;;;;;;;;;5029040;28;20072;-77
2022/03/23 00:03:46;;;;;;;54.08;29.98;;;;;;;;;;5030172;28;20072;-77
2022/03/23 00:06:13;;;;;;;51.03;28.85;;;;;;;;;;5010544;28;20085;-77
2022/03/23 00:08:39;;;;;;;56.97;28.80;;;;;;;;;;5030227;28;20442;-78
2022/03/23 00:11:06;;;;;;;54.08;30.33;;;;;;;;;;5029891;28;20486;-77
2022/03/23 00:13:32;;;;;;;67.57;30.00;;;;;;;;;;5031366;28;20057;-78
2022/03/23 00:15:58;;;;;;;57.85;30.48;;;;;;;;;;5029322;28;20116;-77
2022/03/23 00:18:25;;;;;;;60.30;30.35;;;;;;;;;;5031335;28;20347;-77
2022/03/23 00:20:51;;;;;;;62.40;30.48;;;;;;;;;;5030490;28;20482;-77
2022/03/23 00:23:17;;;;;;;58.72;32.08;;;;;;;;;;5030038;28;20084;-77
2022/03/23 00:25:43;;;;;;;54.60;30.27;;;;;;;;;;5025879;28;20254;-77
2022/03/23 00:28:10;;;;;;;54.03;29.23;;;;;;;;;;5031587;28;20103;-78
2022/03/23 00:30:37;;;;;;;54.45;29.60;;;;;;;;;;5029929;28;20053;-77
2022/03/23 00:33:05;;;;;;;52.03;28.02;;;;;;;;;;5030032;28;20376;-77
2022/03/23 00:35:31;;;;;;;57.13;29.60;;;;;;;;;;5030174;28;20068;-77
2022/03/23 00:38:00;;;;;;;60.40;29.77;;;;;;;;;;5031295;28;20467;-78
2022/03/23 00:40:30;;;;;;;54.05;28.30;;;;;;;;;;5028383;28;20099;-77
2022/03/23 00:43:01;;;;;;;50.33;27.70;;;;;;;;;;5030598;28;20057;-77
2022/03/23 00:45:27;;;;;;;57.65;29.40;;;;;;;;;;5025317;28;20048;-77
2022/03/23 00:47:53;;;;;;;59.03;30.95;;;;;;;;;;5024143;28;20040;-78
2022/03/23 00:50:19;;;;;;;64.32;30.80;;;;;;;;;;5026185;28;20029;-77
2022/03/23 00:52:47;;;;;;;57.90;32.63;;;;;;;;;;5026969;28;20033;-77
2022/03/23 00:55:15;;;;;;;66.90;32.80;;;;;;;;;;5023341;28;20029;-77
2022/03/23 00:57:42;;;;;;;64.57;33.33;;;;;;;;;;5026749;28;20041;-77
2022/03/23 01:00:12;;;;;;;66.75;34.20;;;;;;;;;;5025489;28;20049;-77
2022/03/23 01:02:41;;;;;;;69.03;31.85;;;;;;;;;;5030115;28;20041;-77
2022/03/23 01:05:11;;;;;;;65.47;33.45;;;;;;;;;;5029323;28;20108;-77
2022/03/23 01:07:38;;;;;;;77.05;35.90;;;;;;;;;;5029517;28;20506;-78
2022/03/23 01:10:05;;;;;;;63.47;33.35;;;;;;;;;;5027424;28;20029;-75
2022/03/23 01:12:31;;;;;;;63.90;31.45;;;;;;;;;;5029799;28;20029;-77
2022/03/23 01:14:57;;;;;;;64.55;32.00;;;;;;;;;;5027924;28;20483;-77
2022/03/23 01:17:23;;;;;;;59.40;31.80;;;;;;;;;;5030011;28;20085;-77
2022/03/23 01:19:49;;;;;;;60.03;31.50;;;;;;;;;;5029415;28;20045;-77
2022/03/23 01:22:16;;;;;;;69.85;33.42;;;;;;;;;;5029955;28;20056;-77
2022/03/23 01:24:43;;;;;;;64.97;32.22;;;;;;;;;;5029838;28;20037;-77
2022/03/23 01:27:09;;;;;;;62.17;31.83;;;;;;;;;;5029099;28;20090;-77
2022/03/23 01:29:35;;;;;;;64.50;32.30;;;;;;;;;;5029801;28;20033;-77
2022/03/23 01:32:01;;;;;;;71.88;33.38;;;;;;;;;;5028324;28;20036;-76
2022/03/23 01:34:27;;;;;;;64.88;32.45;;;;;;;;;;5029973;28;20491;-76
2022/03/23 01:36:53;;;;;;;66.63;34.05;;;;;;;;;;5030145;28;20036;-76
2022/03/23 01:39:19;;;;;;;64.20;33.05;;;;;;;;;;5029119;28;20032;-76
2022/03/23 01:41:46;;;;;;;73.82;34.22;;;;;;;;;;5027268;28;20037;-76
2022/03/23 01:44:17;;;;;;;65.90;34.25;;;;;;;;;;5029392;28;20037;-77
2022/03/23 01:47:01;;;;;;;62.45;32.50;;;;;;;;;;5027969;28;20494;-77
2022/03/23 01:49:28;;;;;;;61.28;33.33;;;;;;;;;;5028411;28;20091;-78
2022/03/23 01:51:54;;;;;;;60.13;33.00;;;;;;;;;;5029684;28;20033;-77
2022/03/23 01:54:20;;;;;;;70.03;33.15;;;;;;;;;;5030052;28;20074;-77
2022/03/23 01:56:46;;;;;;;62.78;32.88;;;;;;;;;;5027991;28;20123;-78
2022/03/23 01:59:12;;;;;;;63.55;33.22;;;;;;;;;;5029334;28;20091;-78
2022/03/23 02:01:39;;;;;;;67.68;33.08;;;;;;;;;;5025255;28;20490;-78
2022/03/23 02:04:05;;;;;;;64.82;32.58;;;;;;;;;;5029516;28;20045;-78
2022/03/23 02:06:31;;;;;;;66.25;33.70;;;;;;;;;;5029549;28;20175;-77
2022/03/23 02:08:58;;;;;;;69.75;33.13;;;;;;;;;;5029403;28;20068;-78
2022/03/23 02:11:24;;;;;;;64.75;32.88;;;;;;;;;;5028623;28;20487;-78
2022/03/23 02:13:53;;;;;;;72.13;34.40;;;;;;;;;;5027669;28;20037;-78
2022/03/23 02:16:19;;;;;;;70.10;33.67;;;;;;;;;;5028002;28;20100;-77
2022/03/23 02:18:45;;;;;;;71.35;35.05;;;;;;;;;;5028048;28;20461;-77
2022/03/23 02:21:14;;;;;;;70.85;34.35;;;;;;;;;;5028573;28;20045;-77
2022/03/23 02:23:40;;;;;;;71.43;35.65;;;;;;;;;;5028011;28;20060;-78
2022/03/23 02:26:06;;;;;;;79.93;36.90;;;;;;;;;;5025857;28;20053;-77
2022/03/23 02:28:32;;;;;;;77.82;37.55;;;;;;;;;;5027579;28;20025;-77
2022/03/23 02:31:01;;;;;;;72.60;36.08;;;;;;;;;;5027695;28;20786;-77
2022/03/23 02:33:27;;;;;;;76.53;36.35;;;;;;;;;;5028740;28;20415;-77
2022/03/23 02:35:53;;;;;;;71.63;34.60;;;;;;;;;;5026646;28;20055;-76
2022/03/23 02:38:19;;;;;;;77.53;34.30;;;;;;;;;;5028672;28;20033;-76
2022/03/23 02:40:45;;;;;;;69.35;33.78;;;;;;;;;;5027777;28;20022;-77
2022/03/23 02:43:11;;;;;;;66.50;33.30;;;;;;;;;;5028185;28;20029;-78
2022/03/23 02:45:38;;;;;;;63.55;32.30;;;;;;;;;;5027948;28;20343;-77
2022/03/23 02:48:06;;;;;;;67.25;34.00;;;;;;;;;;5028580;28;20022;-78
2022/03/23 02:50:32;;;;;;;71.93;33.30;;;;;;;;;;5028101;28;20052;-78
2022/03/23 03:04:19;;;;;;;91.75;41.28;;;;;;;;;;5026430;28;20486;-78
2022/03/23 03:06:48;;;;;;;89.57;40.60;;;;;;;;;;5027838;28;20029;-77
2022/03/23 03:09:15;;;;;;;90.50;39.83;;;;;;;;;;5028107;28;20033;-77
2022/03/23 03:11:43;;;;;;;66.10;34.40;;;;;;;;;;5022632;28;20029;-77
2022/03/23 03:14:10;;;;;;;58.80;29.27;;;;;;;;;;5028067;28;20537;-77
2022/03/23 03:16:36;;;;;;;55.80;30.02;;;;;;;;;;5027674;28;20479;-77
2022/03/23 03:19:04;;;;;;;62.65;28.98;;;;;;;;;;5030652;28;20033;-75
2022/03/23 03:21:32;;;;;;;62.60;30.52;;;;;;;;;;5025871;28;20030;-76
2022/03/23 03:24:01;;;;;;;63.60;30.63;;;;;;;;;;5027363;28;20035;-77
2022/03/23 03:26:30;;;;;;;70.70;31.42;;;;;;;;;;5027219;28;20045;-77
2022/03/23 03:28:57;;;;;;;63.17;30.95;;;;;;;;;;5010449;28;20044;-77
2022/03/23 03:31:23;;;;;;;64.57;30.25;;;;;;;;;;5025832;28;20041;-77
2022/03/23 03:33:49;;;;;;;59.53;30.40;;;;;;;;;;5024930;28;20101;-77
2022/03/23 03:36:15;;;;;;;67.97;30.98;;;;;;;;;;5025458;28;20080;-77
2022/03/23 03:38:41;;;;;;;79.63;36.92;;;;;;;;;;5026138;28;20044;-77
2022/03/23 03:41:08;;;;;;;79.93;37.95;;;;;;;;;;5024611;28;20033;-76
2022/03/23 03:43:34;;;;;;;87.07;39.85;;;;;;;;;;5026587;28;20025;-77
2022/03/23 03:46:01;;;;;;;77.18;37.25;;;;;;;;;;5025154;28;20033;-76
2022/03/23 03:48:27;;;;;;;79.78;35.58;;;;;;;;;;5027920;28;20021;-76
2022/03/23 03:50:53;;;;;;;70.20;35.42;;;;;;;;;;5026779;28;20021;-76
2022/03/23 03:53:19;;;;;;;74.30;35.00;;;;;;;;;;5027126;28;20112;-77
2022/03/23 03:55:48;;;;;;;85.75;37.75;;;;;;;;;;5026843;28;20025;-77
2022/03/23 03:58:14;;;;;;;77.82;35.75;;;;;;;;;;5026547;28;20061;-77
2022/03/23 04:00:41;;;;;;;72.63;35.17;;;;;;;;;;5025857;28;20345;-77
2022/03/23 04:03:07;;;;;;;88.13;37.25;;;;;;;;;;5026418;28;20064;-77
2022/03/23 04:05:34;;;;;;;83.45;38.08;;;;;;;;;;5026200;28;20095;-77
2022/03/23 04:08:00;;;;;;;85.65;38.65;;;;;;;;;;5024833;28;20052;-77
2022/03/23 04:10:26;;;;;;;99.13;40.53;;;;;;;;;;5027437;28;20523;-77
2022/03/23 04:12:53;;;;;;;85.88;39.75;;;;;;;;;;5029732;28;20052;-77
2022/03/23 04:15:20;;;;;;;96.32;42.00;;;;;;;;;;5029913;28;20036;-77
2022/03/23 04:17:46;;;;;;;83.40;40.53;;;;;;;;;;5029212;28;20022;-77
2022/03/23 04:20:13;;;;;;;83.95;40.33;;;;;;;;;;5030327;28;20034;-77
2022/03/23 04:22:39;;;;;;;84.85;38.88;;;;;;;;;;5030530;28;20034;-76
2022/03/23 04:25:07;;;;;;;84.35;40.70;;;;;;;;;;5012697;28;20041;-77
2022/03/23 04:27:34;;;;;;;90.07;39.92;;;;;;;;;;5028696;28;20037;-77
2022/03/23 04:30:00;;;;;;;83.13;40.40;;;;;;;;;;5030803;28;20037;-77
2022/03/23 04:32:26;;;;;;;94.65;41.10;;;;;;;;;;5029394;28;20052;-78
2022/03/23 04:34:52;;;;;;;92.63;41.42;;;;;;;;;;5028798;28;20360;-75
2022/03/23 04:37:18;;;;;;;88.53;41.05;;;;;;;;;;5031034;28;20112;-75
2022/03/23 04:39:44;;;;;;;86.47;43.10;;;;;;;;;;5030139;28;20184;-76
2022/03/23 04:42:10;;;;;;;94.57;42.42;;;;;;;;;;5012289;28;20036;-77
2022/03/23 04:44:36;;;;;;;96.85;41.15;;;;;;;;;;5029343;28;20122;-76
2022/03/23 04:47:02;;;;;;;103.22;45.45;;;;;;;;;;5028833;28;20127;-76
2022/03/23 04:49:28;;;;;;;105.20;46.20;;;;;;;;;;5012995;28;20044;-76
2022/03/23 04:51:54;;;;;;;110.90;46.63;;;;;;;;;;5028496;28;20040;-76
2022/03/23 04:54:20;;;;;;;111.35;46.58;;;;;;;;;;5030572;28;20415;-76
2022/03/23 04:56:47;;;;;;;105.43;44.28;;;;;;;;;;5028549;28;20037;-76
2022/03/23 04:59:13;;;;;;;97.13;43.65;;;;;;;;;;5027679;28;20037;-77
2022/03/23 05:01:40;;;;;;;103.18;44.35;;;;;;;;;;5030345;28;20395;-77
2022/03/23 05:04:06;;;;;;;102.95;45.58;;;;;;;;;;5028963;28;20033;-77
2022/03/23 05:06:32;;;;;;;100.28;43.10;;;;;;;;;;5029193;28;20061;-77
2022/03/23 05:08:59;;;;;;;97.05;43.72;;;;;;;;;;5027777;28;20025;-77
2022/03/23 05:11:25;;;;;;;105.65;44.80;;;;;;;;;;5028920;28;20021;-76
2022/03/23 05:13:51;;;;;;;108.10;44.00;;;;;;;;;;5027251;28;20029;-76
2022/03/23 05:16:18;;;;;;;89.57;41.70;;;;;;;;;;5029563;28;20118;-77
2022/03/23 05:18:44;;;;;;;99.35;41.03;;;;;;;;;;5029210;28;20104;-77
2022/03/23 05:21:11;;;;;;;93.40;41.22;;;;;;;;;;5028861;28;20022;-76
2022/03/23 05:23:37;;;;;;;95.65;42.13;;;;;;;;;;5027739;28;20030;-76
2022/03/23 05:26:03;;;;;;;99.68;41.58;;;;;;;;;;5027854;28;20037;-77
2022/03/23 05:28:30;;;;;;;109.75;42.70;;;;;;;;;;5028853;28;20040;-77
2022/03/23 05:30:56;;;;;;;89.70;40.13;;;;;;;;;;5029094;28;20054;-77
2022/03/23 05:33:22;;;;;;;90.40;39.15;;;;;;;;;;5030441;28;20030;-74
2022/03/23 05:35:48;;;;;;;90.35;38.75;;;;;;;;;;5027688;28;20041;-75
2022/03/23 05:38:14;;;;;;;114.10;44.08;;;;;;;;;;5029462;28;20052;-77
2022/03/23 05:40:40;;;;;;;75.88;36.58;;;;;;;;;;5029269;28;20096;-77
2022/03/23 05:43:06;;;;;;;82.05;36.80;;;;;;;;;;5029957;28;20040;-76
2022/03/23 05:45:32;;;;;;;72.90;34.40;;;;;;;;;;5028907;28;20040;-76
2022/03/23 05:47:58;;;;;;;84.53;37.97;;;;;;;;;;5027391;28;20158;-76
2022/03/23 05:50:24;;;;;;;93.65;42.03;;;;;;;;;;5029616;28;20040;-76
2022/03/23 05:52:50;;;;;;;97.38;42.00;;;;;;;;;;5026541;28;20026;-76
2022/03/23 05:55:16;;;;;;;98.60;41.47;;;;;;;;;;5029960;28;20504;-77
2022/03/23 05:57:42;;;;;;;91.95;40.15;;;;;;;;;;5027956;28;20117;-77
2022/03/23 06:00:09;;;;;;;79.95;38.53;;;;;;;;;;5027511;28;20111;-76
2022/03/23 06:02:35;;;;;;;85.68;39.53;;;;;;;;;;5029830;28;20025;-76
2022/03/23 06:05:01;;;;;;;81.85;35.80;;;;;;;;;;5028523;28;20037;-75
2022/03/23 06:07:27;;;;;;;80.28;39.03;;;;;;;;;;5029379;28;20048;-69
2022/03/23 06:09:53;;;;;;;80.90;36.45;;;;;;;;;;5028775;28;20041;-66
2022/03/23 06:12:20;;;;;;;82.72;39.13;;;;;;;;;;5028295;28;20343;-69
2022/03/23 06:14:47;;;;;;;89.78;39.80;;;;;;;;;;5028091;28;20034;-70
2022/03/23 06:17:13;;;;;;;102.90;41.80;;;;;;;;;;5028978;28;20060;-69
2022/03/23 06:19:40;;;;;;;106.65;42.95;;;;;;;;;;5028149;28;20132;-69
2022/03/23 06:22:06;;;;;;;97.25;42.40;;;;;;;;;;5028336;28;20037;-69
2022/03/23 06:24:32;;;;;;;90.55;40.67;;;;;;;;;;5027270;28;20037;-69
2022/03/23 06:26:58;;;;;;;88.03;40.35;;;;;;;;;;5028505;28;20617;-69
2022/03/23 06:29:24;;;;;;;99.15;40.58;;;;;;;;;;5028949;28;20140;-69
2022/03/23 06:31:51;;;;;;;88.38;38.95;;;;;;;;;;5007440;28;20069;-68
2022/03/23 06:34:17;;;;;;;89.05;40.75;;;;;;;;;;5007051;28;20049;-70
2022/03/23 06:36:43;;;;;;;82.22;40.65;;;;;;;;;;5008540;28;20047;-68
2022/03/23 06:39:09;;;;;;;77.70;38.83;;;;;;;;;;5008444;28;20096;-68
2022/03/23 06:41:35;;;;;;;77.68;37.03;;;;;;;;;;5007946;28;20109;-68
2022/03/23 06:44:02;;;;;;;69.60;34.85;;;;;;;;;;5006726;28;20511;-68
2022/03/23 06:46:28;;;;;;;72.47;34.08;;;;;;;;;;5006212;28;20121;-69
2022/03/23 06:48:54;;;;;;;69.00;33.00;;;;;;;;;;5008120;28;20483;-68
2022/03/23 06:51:20;;;;;;;63.15;33.90;;;;;;;;;;5006497;28;20083;-68
2022/03/23 06:53:46;;;;;;;74.40;33.30;;;;;;;;;;5007279;28;20072;-68
2022/03/23 06:56:12;;;;;;;74.15;35.00;;;;;;;;;;5006371;28;20124;-68
2022/03/23 06:58:38;;;;;;;73.75;32.53;;;;;;;;;;5008122;28;20541;-69
2022/03/23 07:01:04;;;;;;;65.40;33.65;;;;;;;;;;5006298;28;20064;-69
2022/03/23 07:03:30;;;;;;;62.17;33.60;;;;;;;;;;5008312;28;20096;-68
2022/03/23 07:05:56;;;;;;;67.85;33.08;;;;;;;;;;5006409;28;20463;-68
2022/03/23 07:11:07;;;;;;;59.13;32.90;;;;;;;;;;5006443;28;20151;-70
2022/03/23 07:13:33;;;;;;;69.63;31.38;;;;;;;;;;5008220;28;20034;-69
2022/03/23 07:15:59;;;;;;;60.35;33.38;;;;;;;;;;5008878;28;20033;-68
2022/03/23 07:18:25;;;;;;;70.18;33.65;;;;;;;;;;5008995;28;20037;-69
2022/03/23 07:20:51;;;;;;;61.17;33.25;;;;;;;;;;5009056;28;20041;-68
2022/03/23 07:23:17;;;;;;;68.68;32.90;;;;;;;;;;5009094;28;20125;-69
2022/03/23 07:25:43;;;;;;;72.30;34.08;;;;;;;;;;5008929;28;20137;-69
2022/03/23 07:28:10;;;;;;;63.78;34.50;;;;;;;;;;5008000;28;20160;-68
2022/03/23 07:30:37;;;;;;;73.32;34.00;;;;;;;;;;5017827;28;20034;-68
2022/03/23 07:33:03;;;;;;;59.38;33.55;;;;;;;;;;5028835;28;20041;-69
2022/03/23 07:35:29;;;;;;;67.18;36.05;;;;;;;;;;5027491;28;20057;-68
2022/03/23 07:37:56;;;;;;;65.00;35.28;;;;;;;;;;5024761;28;20038;-68
2022/03/23 07:40:22;;;;;;;64.22;33.65;;;;;;;;;;5027263;28;20080;-68
2022/03/23 07:42:49;;;;;;;60.38;32.63;;;;;;;;;;5026920;28;20041;-68
2022/03/23 07:45:15;;;;;;;63.58;33.78;;;;;;;;;;5029361;28;20044;-68
2022/03/23 07:47:41;;;;;;;64.75;33.47;;;;;;;;;;5031152;28;20037;-69
2022/03/23 07:50:07;;;;;;;58.75;32.55;;;;;;;;;;5032162;28;20046;-69
2022/03/23 07:52:34;;;;;;;65.13;33.38;;;;;;;;;;5030930;28;20045;-68
2022/03/23 07:55:00;;;;;;;61.80;32.42;;;;;;;;;;5032406;28;20029;-68
2022/03/23 07:57:26;;;;;;;52.97;31.23;;;;;;;;;;5032764;28;20025;-68
2022/03/23 07:59:55;;;;;;;49.45;30.17;;;;;;;;;;5032343;28;20030;-68
2022/03/23 08:02:21;;;;;;;50.17;30.13;;;;;;;;;;5032224;28;20084;-68
2022/03/23 08:04:47;;;;;;;57.05;31.83;;;;;;;;;;5032189;28;20510;-68
2022/03/23 08:07:13;;;;;;;54.45;31.70;;;;;;;;;;5031922;28;20041;-68
2022/03/23 08:09:39;;;;;;;57.50;30.83;;;;;;;;;;5030310;28;20033;-68
2022/03/23 08:12:05;;;;;;;56.90;31.05;;;;;;;;;;5031991;28;20033;-68
2022/03/23 08:14:31;;;;;;;51.00;28.65;;;;;;;;;;5032384;28;20032;-68
2022/03/23 08:16:57;;;;;;;55.40;29.15;;;;;;;;;;5032026;28;20021;-68
2022/03/23 08:19:23;;;;;;;44.50;27.20;;;;;;;;;;5031521;28;20036;-69
2022/03/23 08:21:50;;;;;;;45.90;27.13;;;;;;;;;;5032056;28;20064;-68
2022/03/23 08:24:16;;;;;;;56.65;28.38;;;;;;;;;;5029596;28;20475;-68
2022/03/23 08:26:43;;;;;;;49.45;27.80;;;;;;;;;;5028402;28;20084;-70
2022/03/23 08:29:09;;;;;;;50.83;27.48;;;;;;;;;;5030318;28;20081;-70
2022/03/23 08:31:36;;;;;;;45.60;27.90;;;;;;;;;;5030810;28;20049;-68
2022/03/23 08:34:02;;;;;;;49.58;27.98;;;;;;;;;;5031953;28;20029;-69
2022/03/23 08:36:29;;;;;;;49.97;28.08;;;;;;;;;;5029756;28;20119;-67
2022/03/23 08:38:55;;;;;;;56.00;30.70;;;;;;;;;;5026275;28;20196;-67
2022/03/23 08:41:22;;;;;;;55.33;28.55;;;;;;;;;;5030316;28;20026;-68
2022/03/23 08:43:48;;;;;;;50.38;29.25;;;;;;;;;;5030918;28;20339;-67
2022/03/23 08:46:14;;;;;;;52.15;29.42;;;;;;;;;;5029961;28;20087;-68
2022/03/23 08:48:40;;;;;;;55.17;28.15;;;;;;;;;;5031023;28;20032;-69
2022/03/23 08:51:06;;;;;;;52.58;32.22;;;;;;;;;;5029198;28;20241;-68
2022/03/23 08:53:32;;;;;;;51.55;30.65;;;;;;;;;;5027539;28;20140;-67
2022/03/23 08:55:59;;;;;;;48.25;29.58;;;;;;;;;;5027934;28;20036;-68
2022/03/23 08:58:25;;;;;;;51.58;30.05;;;;;;;;;;5027337;28;20041;-68
2022/03/23 09:00:51;;;;;;;45.35;29.17;;;;;;;;;;5029616;28;20053;-69
2022/03/23 09:03:17;;;;;;;53.85;30.17;;;;;;;;;;5030891;28;20454;-68
2022/03/23 09:05:43;;;;;;;44.60;28.40;;;;;;;;;;5027557;28;20120;-68
2022/03/23 09:08:09;;;;;;;48.92;29.52;;;;;;;;;;5030635;28;20033;-69
2022/03/23 09:10:35;;;;;;;50.38;29.85;;;;;;;;;;5029913;28;20087;-68
2022/03/23 09:13:02;;;;;;;47.70;29.13;;;;;;;;;;5029014;28;20474;-68
2022/03/23 09:15:28;;;;;;;50.35;27.95;;;;;;;;;;5029088;28;20430;-68
2022/03/23 09:18:04;;;;;;;43.78;27.98;;;;;;;;;;5030505;28;20021;-68
2022/03/23 09:20:30;;;;;;;46.38;27.73;;;;;;;;;;5028031;28;20057;-68
2022/03/23 09:22:58;;;;;;;46.60;28.60;;;;;;;;;;5029784;28;20513;-68
2022/03/23 09:25:24;;;;;;;43.38;28.20;;;;;;;;;;5029033;28;20056;-68
2022/03/23 09:27:51;;;;;;;43.47;28.35;;;;;;;;;;5029717;28;20022;-68
2022/03/23 09:30:18;;;;;;;45.92;26.02;;;;;;;;;;5026950;28;20045;-68
2022/03/23 09:32:46;;;;;;;47.63;28.70;;;;;;;;;;5027802;28;20121;-68
2022/03/23 09:35:12;;;;;;;45.08;27.25;;;;;;;;;;5026745;28;20034;-69
2022/03/23 09:37:47;;;;;;;45.00;27.92;;;;;;;;;;5029449;28;20033;-67
2022/03/23 09:40:15;;;;;;;49.70;28.85;;;;;;;;;;5021040;28;20033;-68
2022/03/23 09:42:42;;;;;;;50.45;26.05;;;;;;;;;;5030720;28;20081;-68
2022/03/23 09:45:08;;;;;;;48.42;28.67;;;;;;;;;;5030291;28;20033;-68
2022/03/23 09:47:34;;;;;;;43.53;27.95;;;;;;;;;;5028913;28;20029;-69
2022/03/23 09:50:00;;;;;;;42.33;28.10;;;;;;;;;;5029851;28;20628;-68
2022/03/23 09:52:27;;;;;;;47.58;29.73;;;;;;;;;;5029174;28;20049;-68
2022/03/23 09:54:53;;;;;;;52.42;27.50;;;;;;;;;;5028527;28;20030;-68
2022/03/23 09:57:19;;;;;;;46.80;27.38;;;;;;;;;;5030065;28;20036;-68
2022/03/23 09:59:46;;;;;;;43.20;27.17;;;;;;;;;;5029368;28;20032;-68
2022/03/23 10:02:31;;;;;;;43.45;27.35;;;;;;;;;;5028592;28;20025;-68
2022/03/23 10:05:17;;;;;;;44.60;27.52;;;;;;;;;;5029657;28;20041;-69
2022/03/23 10:07:50;;;;;;;41.67;26.00;;;;;;;;;;5029021;28;20491;-69
2022/03/23 10:10:19;;;;;;;47.92;26.92;;;;;;;;;;5029481;28;20103;-68
2022/03/23 10:13:11;;;;;;;41.00;24.02;;;;;;;;;;5029510;28;20037;-69
2022/03/23 10:15:56;;;;;;;49.00;20.75;;;;;;;;;;5028324;28;20456;-68
2022/03/23 10:18:40;;;;;;;36.25;21.13;;;;;;;;;;5028895;28;20227;-68
2022/03/23 10:21:10;;;;;;;39.33;19.70;;;;;;;;;;5021822;28;20026;-68
2022/03/23 10:23:36;;;;;;;40.55;17.90;;;;;;;;;;5029715;28;20120;-68
2022/03/23 10:26:12;;;;;;;34.65;17.25;;;;;;;;;;5028900;28;20116;-67
2022/03/23 10:28:38;;;;;;;34.33;16.85;;;;;;;;;;5014649;28;20026;-68
2022/03/23 10:31:15;;;;;;;35.45;16.20;;;;;;;;;;5026972;28;20064;-68
2022/03/23 10:33:41;;;;;;;38.03;14.85;;;;;;;;;;5028266;28;20041;-68
2022/03/23 10:36:07;;;;;;;32.05;15.52;;;;;;;;;;5028523;28;20029;-68
2022/03/23 10:38:38;;;;;;;40.80;15.07;;;;;;;;;;5028951;28;20026;-69
2022/03/23 10:41:11;;;;;;;29.63;13.40;;;;;;;;;;5029230;28;20049;-69
2022/03/23 10:43:39;;;;;;;38.45;15.15;;;;;;;;;;5026781;28;20436;-69
2022/03/23 10:46:11;;;;;;;32.80;11.60;;;;;;;;;;5028277;28;20079;-68
2022/03/23 10:48:50;;;;;;;35.88;11.30;;;;;;;;;;5029083;28;20040;-69
2022/03/23 10:51:25;;;;;;;33.97;11.00;;;;;;;;;;5028202;28;20034;-68
2022/03/23 10:53:51;;;;;;;33.42;11.68;;;;;;;;;;5016777;28;20037;-67
2022/03/23 10:56:17;;;;;;;34.90;10.73;;;;;;;;;;5028539;28;20034;-67
2022/03/23 10:58:44;;;;;;;29.38;10.23;;;;;;;;;;5026845;28;20402;-69
2022/03/23 11:01:10;;;;;;;31.60;9.55;;;;;;;;;;5027811;28;20045;-67
2022/03/23 11:03:38;;;;;;;38.00;9.48;;;;;;;;;;5028655;28;20471;-69
2022/03/23 11:06:05;;;;;;;39.53;10.68;;;;;;;;;;5026147;28;20119;-68
2022/03/23 11:08:32;;;;;;;32.00;10.65;;;;;;;;;;5024645;28;20025;-68
2022/03/23 11:16:29;;;;;;;29.95;7.80;;;;;;;;;;5027404;28;20195;-68
2022/03/23 11:19:17;;;;;;;29.92;9.82;;;;;;;;;;5022359;28;20082;-68
2022/03/23 11:22:09;;;;;;;33.35;10.98;;;;;;;;;;5024943;28;20480;-68
2022/03/23 11:24:42;;;;;;;38.28;10.70;;;;;;;;;;5025666;28;20048;-68
2022/03/23 11:27:09;;;;;;;33.80;9.48;;;;;;;;;;5027491;28;20022;-67
2022/03/23 11:29:37;;;;;;;28.35;8.45;;;;;;;;;;5028181;28;20025;-68
2022/03/23 11:32:04;;;;;;;37.85;11.48;;;;;;;;;;5026527;28;20436;-68
2022/03/23 11:34:32;;;;;;;37.30;10.38;;;;;;;;;;5027298;28;20037;-68
2022/03/23 11:36:58;;;;;;;48.00;12.77;;;;;;;;;;5028154;28;20198;-68
2022/03/23 11:39:24;;;;;;;35.03;12.32;;;;;;;;;;5027861;28;20033;-67
2022/03/23 11:41:53;;;;;;;25.35;12.43;;;;;;;;;;5032576;28;20061;-68
2022/03/23 11:44:22;;;;;;;31.73;14.05;;;;;;;;;;5032930;28;20025;-68
2022/03/23 11:46:50;;;;;;;37.13;13.63;;;;;;;;;;5027603;28;20041;-68
2022/03/23 11:49:31;;;;;;;41.08;14.88;;;;;;;;;;5027911;28;20124;-69
2022/03/23 11:51:57;;;;;;;40.67;15.70;;;;;;;;;;5027302;28;20037;-67
2022/03/23 11:57:45;;;;;;;35.72;16.38;;;;;;;;;;5027465;28;20076;-69
2022/03/23 12:00:17;;;;;;;34.97;15.93;;;;;;;;;;5027565;28;20071;-69
2022/03/23 12:02:43;;;;;;;40.67;16.00;;;;;;;;;;5026705;28;20099;-69
2022/03/23 12:05:39;;;;;;;29.77;14.85;;;;;;;;;;5027765;28;20053;-69
2022/03/23 12:08:06;;;;;;;36.10;16.05;;;;;;;;;;5023308;28;20045;-69
2022/03/23 12:10:33;;;;;;;35.92;15.77;;;;;;;;;;5026163;28;20107;-69
2022/03/23 12:13:12;;;;;;;33.00;16.75;;;;;;;;;;5018448;28;20049;-68
2022/03/23 12:15:54;;;;;;;37.78;20.50;;;;;;;;;;5019663;28;20056;-68
2022/03/23 12:18:38;;;;;;;42.15;21.73;;;;;;;;;;5009150;28;20026;-69
2022/03/23 12:21:06;;;;;;;33.10;19.75;;;;;;;;;;5024560;28;20029;-69
2022/03/23 12:23:39;;;;;;;33.40;20.08;;;;;;;;;;5028423;28;20061;-69
2022/03/23 12:26:26;;;;;;;33.90;21.20;;;;;;;;;;5027100;28;20037;-69
2022/03/23 12:28:58;;;;;;;36.92;22.38;;;;;;;;;;5024234;28;20569;-70
2022/03/23 12:31:34;;;;;;;36.70;20.73;;;;;;;;;;5025470;28;20132;-68
2022/03/23 12:34:16;;;;;;;31.77;21.15;;;;;;;;;;5030907;28;20179;-69
2022/03/23 12:37:01;;;;;;;37.45;21.10;;;;;;;;;;5029615;28;20035;-67
2022/03/23 12:39:37;;;;;;;37.17;21.48;;;;;;;;;;5015504;28;20022;-67
2022/03/23 12:42:13;;;;;;;37.95;21.60;;;;;;;;;;5026890;28;20030;-67
2022/03/23 12:44:49;;;;;;;32.08;21.20;;;;;;;;;;5030058;28;20037;-67
2022/03/23 12:47:20;;;;;;;33.30;19.90;;;;;;;;;;5029511;28;20021;-67
2022/03/23 12:58:18;;;;;;;33.65;20.27;;;;;;;;;;5029825;28;20056;-67
2022/03/23 13:00:46;;;;;;;36.58;21.27;;;;;;;;;;5030619;28;20060;-67
2022/03/23 13:03:12;;;;;;;33.15;20.90;;;;;;;;;;5028565;28;20426;-67
2022/03/23 13:05:58;;;;;;;30.38;20.63;;;;;;;;;;5029487;28;20107;-67
2022/03/23 13:08:29;;;;;;;32.90;21.80;;;;;;;;;;5030279;28;20037;-68
2022/03/23 13:10:59;;;;;;;35.08;21.95;;;;;;;;;;5029393;28;20079;-68
2022/03/23 13:13:26;;;;;;;35.80;22.60;;;;;;;;;;5030180;28;20034;-68
2022/03/23 13:15:52;;;;;;;37.15;22.05;;;;;;;;;;5029841;28;20030;-69
2022/03/23 13:18:24;;;;;;;38.95;22.00;;;;;;;;;;5028634;28;20029;-69
2022/03/23 13:20:50;;;;;;;32.15;22.33;;;;;;;;;;5028369;28;20037;-69
2022/03/23 13:23:19;;;;;;;36.42;22.92;;;;;;;;;;5027702;28;21486;-69
2022/03/23 13:25:45;;;;;;;42.60;23.00;;;;;;;;;;5028397;28;20037;-69
2022/03/23 13:28:15;;;;;;;32.97;21.52;;;;;;;;;;5031340;28;20498;-69
2022/03/23 13:30:42;;;;;;;43.90;21.80;;;;;;;;;;5029926;28;20064;-69
2022/03/23 13:33:17;;;;;;;35.70;22.80;;;;;;;;;;5029619;28;20029;-69
2022/03/23 13:35:44;;;;;;;40.55;22.90;;;;;;;;;;5027491;28;20100;-69
2022/03/23 13:38:11;;;;;;;33.90;21.92;;;;;;;;;;5029860;28;20039;-69
2022/03/23 13:43:32;;;;;;;36.00;23.50;;;;;;;;;;5029280;28;20626;-69
2022/03/23 13:45:58;;;;;;;;;;;;;;;;;;5028839;28;20181;-69
2022/03/23 13:48:30;;;;;;;35.75;21.70;;;;;;;;;;5029989;28;19953;-69
2022/03/23 13:50:56;;;;;;;33.75;22.02;;;;;;;;;;5030285;28;20083;-69
2022/03/23 13:53:22;;;;;;;36.72;23.63;;;;;;;;;;5029430;28;20045;-70
2022/03/23 13:55:49;;;;;;;47.45;24.73;;;;;;;;;;5029276;28;20083;-70
2022/03/23 13:58:16;;;;;;;39.30;23.90;;;;;;;;;;5029501;28;20104;-70
2022/03/23 14:00:43;;;;;;;32.22;23.45;;;;;;;;;;5030412;28;20470;-70
2022/03/23 14:03:09;;;;;;;33.75;23.00;;;;;;;;;;5030871;28;20112;-70
2022/03/23 14:05:36;;;;;;;35.38;24.52;;;;;;;;;;5028239;28;20037;-70
2022/03/23 14:08:02;;;;;;;35.35;23.83;;;;;;;;;;5028580;28;20029;-71
2022/03/23 14:10:35;;;;;;;39.47;24.35;;;;;;;;;;5029017;28;20030;-70
2022/03/23 14:13:04;;;;;;;35.97;24.40;;;;;;;;;;5028526;28;20060;-70
2022/03/23 14:15:36;;;;;;;37.92;25.42;;;;;;;;;;5029570;28;20033;-70
2022/03/23 14:18:03;;;;;;;35.35;24.77;;;;;;;;;;5029483;28;20061;-70
2022/03/23 14:20:30;;;;;;;36.97;24.58;;;;;;;;;;5029668;28;20217;-70
2022/03/23 14:22:56;;;;;;;37.85;24.77;;;;;;;;;;5027395;28;20507;-70
2022/03/23 14:25:24;;;;;;;40.28;24.80;;;;;;;;;;5029069;28;20603;-69
2022/03/23 14:27:54;;;;;;;40.28;25.35;;;;;;;;;;5028532;28;20564;-69
2022/03/23 14:30:20;;;;;;;35.83;24.27;;;;;;;;;;5029599;28;20141;-69
2022/03/23 14:32:59;;;;;;;46.28;25.25;;;;;;;;;;5025662;28;20048;-68
2022/03/23 14:35:45;;;;;;;35.88;18.67;;;;;;;;;;5028703;28;20034;-68
2022/03/23 14:38:13;;;;;;;34.70;17.60;;;;;;;;;;5029931;28;20025;-69
2022/03/23 14:40:50;;;;;;;33.67;17.35;;;;;;;;;;5026459;28;20030;-68
2022/03/23 14:43:27;;;;;;;35.78;18.30;;;;;;;;;;5024788;28;20033;-68
2022/03/23 14:45:53;;;;;;;45.03;19.17;;;;;;;;;;5025387;28;20037;-69
2022/03/23 14:48:22;;;;;;;33.83;18.65;;;;;;;;;;5027814;28;20108;-69
2022/03/23 14:50:49;;;;;;;38.97;18.52;;;;;;;;;;5026487;28;20033;-69
2022/03/23 14:53:17;;;;;;;40.03;18.50;;;;;;;;;;5024219;28;20022;-69
2022/03/23 14:55:44;;;;;;;35.53;17.10;;;;;;;;;;5023178;28;20037;-69